Time;durP1;ratioP1;P1;durP2;ratioP2;P2;SDS_P1;SDS_P2;PMS_P1;PMS_P2;Temp;Humidity;BMP_temperature;BMP_pressure;BME280_temperature;BME280_humidity;BME280_pressure;Samples;Min_cycle;Max_cycle;Signal;HPM_P1;HPM_P2
2023/10/11 00:00:32;;;;;;;6.68;3.65;;;;;;;24.88;59.37;99357.41;2081269;28;20040;-65
2023/10/11 00:01:29;;;;;;;5.38;3.42;;;;;;;24.86;59.28;99356.78;2082887;28;20065;-64
2023/10/11 00:02:30;;;;;;;8.20;3.63;;;;;;;24.88;59.04;99362.84;2083848;28;20567;-65
2023/10/11 00:03:35;;;;;;;4.97;3.72;;;;;;;24.88;59.22;99362.84;2083998;28;20049;-65
2023/10/11 00:04:36;;;;;;;9.20;3.83;;;;;;;24.87;59.14;99358.44;2081134;28;20060;-65
2023/10/11 00:05:39;;;;;;;8.40;2.95;;;;;;;24.87;59.26;99356.56;2077911;28;20056;-65
2023/10/11 00:06:41;;;;;;;6.38;4.10;;;;;;;24.88;59.57;99357.41;2082148;28;20045;-65
2023/10/11 00:07:44;;;;;;;6.13;2.72;;;;;;;24.87;59.48;99358.44;2083086;28;20060;-65
2023/10/11 00:08:46;;;;;;;4.97;3.40;;;;;;;24.86;59.67;99357.63;2079293;28;20041;-65
2023/10/11 00:09:51;;;;;;;6.22;3.33;;;;;;;24.87;59.42;99353.03;2079427;28;20046;-65
2023/10/11 00:10:54;;;;;;;9.15;3.55;;;;;;;24.88;59.42;99365.53;2079798;28;20045;-65
2023/10/11 00:11:56;;;;;;;4.95;3.10;;;;;;;24.88;59.76;99358.22;2074605;28;20058;-65
2023/10/11 00:12:58;;;;;;;5.78;3.72;;;;;;;24.86;59.75;99360.34;2075624;28;20541;-65
2023/10/11 00:14:01;;;;;;;5.22;3.45;;;;;;;24.88;59.55;99366.38;2075410;28;20045;-65
2023/10/11 00:15:02;;;;;;;5.40;3.75;;;;;;;24.89;59.71;99361.75;2079801;28;20053;-65
2023/10/11 00:16:07;;;;;;;5.18;2.80;;;;;;;24.88;59.46;99360.94;2082442;28;20120;-65
2023/10/11 00:17:10;;;;;;;4.78;3.25;;;;;;;24.89;59.23;99364.47;2080515;28;20045;-65
2023/10/11 00:18:11;;;;;;;5.22;3.33;;;;;;;24.88;59.16;99360.13;2078309;28;20056;-65
2023/10/11 00:19:15;;;;;;;4.68;3.78;;;;;;;24.88;59.54;99362.84;2075887;28;20164;-65
2023/10/11 00:20:19;;;;;;;3.55;3.17;;;;;;;24.88;59.43;99365.53;2078890;28;20773;-65
2023/10/11 00:21:35;;;;;;;6.70;3.33;;;;;;;24.87;59.22;99361.97;2079985;28;20061;-65
2023/10/11 00:22:37;;;;;;;5.50;3.03;;;;;;;24.87;59.50;99359.25;2080138;28;20053;-65
2023/10/11 00:23:41;;;;;;;5.03;3.85;;;;;;;24.87;59.33;99361.16;2079237;28;20087;-65
2023/10/11 00:24:42;;;;;;;3.70;3.28;;;;;;;24.87;59.34;99359.25;2079721;28;20041;-65
2023/10/11 00:25:44;;;;;;;5.53;3.53;;;;;;;24.89;59.39;99361.75;2078734;28;20129;-65
2023/10/11 00:26:49;;;;;;;6.95;3.83;;;;;;;24.88;59.57;99354.69;2077078;28;20526;-66
2023/10/11 00:27:50;;;;;;;6.28;3.67;;;;;;;24.88;59.38;99360.13;2076071;28;20094;-65
2023/10/11 00:28:53;;;;;;;5.40;3.80;;;;;;;24.88;59.33;99360.13;2079642;28;20044;-66
2023/10/11 00:29:54;;;;;;;5.05;3.35;;;;;;;24.88;59.66;99354.69;2069756;28;20061;-65
2023/10/11 00:30:59;;;;;;;4.18;3.28;;;;;;;24.89;59.83;99361.75;2072780;28;20053;-65
2023/10/11 00:32:00;;;;;;;8.70;3.42;;;;;;;24.87;59.29;99353.84;2082275;28;20557;-65
2023/10/11 00:33:04;;;;;;;5.07;2.80;;;;;;;24.87;59.19;99361.16;2076941;28;20100;-66
2023/10/11 00:34:07;;;;;;;6.55;3.58;;;;;;;24.88;59.25;99360.94;2079515;28;20053;-65
2023/10/11 00:35:18;;;;;;;5.53;3.30;;;;;;;24.87;59.65;99361.16;2077928;28;20080;-65
2023/10/11 00:36:24;;;;;;;4.00;3.28;;;;;;;24.87;59.75;99358.44;2080245;28;20052;-66
2023/10/11 00:37:27;;;;;;;3.10;2.80;;;;;;;24.85;59.70;99358.69;2078161;28;20527;-65
2023/10/11 00:38:27;;;;;;;6.00;3.13;;;;;;;24.85;59.42;99361.41;2075605;28;20062;-65
2023/10/11 00:39:32;;;;;;;6.78;3.78;;;;;;;24.87;59.37;99363.88;2076195;28;20059;-66
2023/10/11 00:40:33;;;;;;;6.18;3.17;;;;;;;24.87;59.82;99356.56;2075836;28;20052;-65
2023/10/11 00:41:39;;;;;;;9.60;3.58;;;;;;;24.90;59.43;99360.69;2078452;28;20079;-65
2023/10/11 00:42:41;;;;;;;6.00;3.08;;;;;;;24.88;59.66;99357.41;2078555;28;20087;-66
2023/10/11 00:43:46;;;;;;;5.15;3.67;;;;;;;24.88;59.31;99355.53;2077841;28;20656;-66
2023/10/11 00:44:47;;;;;;;5.60;3.45;;;;;;;24.88;59.31;99358.22;2077738;28;20049;-65
2023/10/11 00:45:48;;;;;;;4.38;3.17;;;;;;;24.89;59.48;99348.19;2075779;28;20060;-65
2023/10/11 00:47:00;;;;;;;5.18;3.38;;;;;;;24.89;59.65;99353.63;2083989;28;20136;-66
2023/10/11 00:48:06;;;;;;;5.13;2.80;;;;;;;24.88;59.21;99350.09;2076154;28;20049;-66
2023/10/11 00:49:13;;;;;;;6.03;2.95;;;;;;;24.88;59.57;99349.28;2077599;28;20067;-66
2023/10/11 00:50:14;;;;;;;4.78;3.35;;;;;;;24.87;59.15;99351.13;2079866;28;20051;-66
2023/10/11 00:51:15;;;;;;;3.42;2.92;;;;;;;24.86;59.29;99346.75;2077688;28;20049;-66
2023/10/11 00:52:17;;;;;;;4.72;2.90;;;;;;;24.89;59.64;99345.50;2079814;28;20084;-66
2023/10/11 00:53:18;;;;;;;4.63;3.17;;;;;;;24.88;59.10;99338.41;2081898;28;20053;-66
2023/10/11 00:54:21;;;;;;;4.53;3.55;;;;;;;24.90;59.17;99341.72;2079548;28;20057;-66
2023/10/11 00:55:23;;;;;;;8.38;3.60;;;;;;;24.90;59.62;99339.00;2076620;28;20049;-66
2023/10/11 00:56:31;;;;;;;8.00;3.35;;;;;;;24.90;59.49;99344.41;2081212;28;20049;-66
2023/10/11 00:57:32;;;;;;;3.67;3.13;;;;;;;24.88;59.40;99335.69;2079503;28;20500;-66
2023/10/11 00:58:38;;;;;;;6.80;3.03;;;;;;;24.88;59.44;99335.69;2079720;28;20055;-65
2023/10/11 00:59:39;;;;;;;7.00;3.20;;;;;;;24.88;59.08;99333.81;2078307;28;20053;-66
2023/10/11 01:00:42;;;;;;;7.07;3.47;;;;;;;24.87;59.19;99337.56;2080436;28;20502;-65
2023/10/11 01:01:43;;;;;;;5.72;3.15;;;;;;;24.88;59.05;99338.41;2076084;28;20145;-65
2023/10/11 01:02:45;;;;;;;5.07;3.25;;;;;;;24.88;59.06;99336.53;2081956;28;20139;-65
2023/10/11 01:03:48;;;;;;;6.07;3.20;;;;;;;24.89;58.98;99329.19;2082104;28;20052;-65
2023/10/11 01:04:50;;;;;;;3.97;3.08;;;;;;;24.88;59.08;99333.81;2079599;28;20223;-65
2023/10/11 01:05:55;;;;;;;4.93;3.28;;;;;;;24.88;59.19;99339.25;2080293;28;20515;-65
2023/10/11 01:06:57;;;;;;;4.68;3.58;;;;;;;24.87;59.27;99328.59;2081803;28;20755;-66
2023/10/11 01:07:58;;;;;;;4.78;2.60;;;;;;;24.88;59.25;99333.81;2081918;28;20056;-66
2023/10/11 01:09:00;;;;;;;2.90;2.13;;;;;;;24.88;58.91;99338.41;2079448;28;20040;-65
2023/10/11 01:10:01;;;;;;;2.88;2.67;;;;;;;24.90;59.09;99336.28;2077337;28;20187;-65
2023/10/11 01:11:02;;;;;;;5.40;3.45;;;;;;;24.88;58.99;99332.97;2079336;28;20532;-65
2023/10/11 01:12:04;;;;;;;7.00;3.20;;;;;;;24.88;59.33;99328.38;2077736;28;20084;-65
2023/10/11 01:13:05;;;;;;;4.70;3.13;;;;;;;24.87;59.22;99334.03;2077188;28;20147;-65
2023/10/11 01:14:08;;;;;;;9.85;2.97;;;;;;;24.89;59.32;99329.19;2077085;28;20520;-65
2023/10/11 01:15:11;;;;;;;7.57;3.30;;;;;;;24.88;59.27;99332.97;2076379;28;20064;-65
2023/10/11 01:16:14;;;;;;;4.95;2.97;;;;;;;24.88;58.97;99330.28;2081493;28;20052;-65
2023/10/11 01:17:16;;;;;;;5.40;3.45;;;;;;;24.90;58.70;99330.84;2078404;28;20552;-65
2023/10/11 01:18:17;;;;;;;4.82;3.63;;;;;;;24.88;59.16;99328.38;2079144;28;20583;-66
2023/10/11 01:19:20;;;;;;;6.95;2.53;;;;;;;24.88;58.77;99328.38;2073733;28;20068;-65
2023/10/11 01:20:21;;;;;;;3.88;2.85;;;;;;;24.88;59.40;99324.84;2077307;28;20533;-65
2023/10/11 01:21:32;;;;;;;5.78;3.22;;;;;;;24.87;58.67;99326.72;2076576;28;20051;-66
2023/10/11 01:22:34;;;;;;;6.32;2.97;;;;;;;24.84;59.27;99327.16;2078178;28;20060;-65
2023/10/11 01:23:36;;;;;;;6.03;2.67;;;;;;;24.85;59.15;99327.97;2078447;28;20507;-65
2023/10/11 01:24:41;;;;;;;9.48;3.15;;;;;;;24.85;58.82;99327.97;2076553;28;20045;-65
2023/10/11 01:25:43;;;;;;;4.38;2.95;;;;;;;24.88;58.56;99332.97;2076125;28;20056;-65
2023/10/11 01:26:44;;;;;;;6.32;3.13;;;;;;;24.87;59.15;99331.31;2077506;28;20200;-65
2023/10/11 01:27:47;;;;;;;5.57;3.00;;;;;;;24.89;59.21;99326.50;2078141;28;20048;-65
2023/10/11 01:28:48;;;;;;;3.30;2.53;;;;;;;24.88;58.88;99330.28;2076840;28;20069;-65
2023/10/11 01:29:50;;;;;;;6.70;3.20;;;;;;;24.85;58.80;99328.84;2078079;28;20427;-64
2023/10/11 01:30:51;;;;;;;5.00;2.95;;;;;;;24.86;59.35;99335.09;2076478;28;20045;-65
2023/10/11 01:31:53;;;;;;;8.07;3.00;;;;;;;24.86;59.23;99329.66;2076726;28;20045;-65
2023/10/11 01:32:55;;;;;;;7.55;3.60;;;;;;;24.87;58.79;99325.88;2077881;28;20045;-65
2023/10/11 01:33:58;;;;;;;6.70;2.92;;;;;;;24.87;59.31;99332.13;2076621;28;20060;-65
2023/10/11 01:35:01;;;;;;;7.05;2.72;;;;;;;24.84;59.41;99323.63;2083226;28;20130;-65
2023/10/11 01:36:06;;;;;;;4.45;2.83;;;;;;;24.87;59.21;99332.13;2077617;28;20493;-65
2023/10/11 01:37:08;;;;;;;4.90;2.95;;;;;;;24.87;58.63;99325.88;2076893;28;20049;-65
2023/10/11 01:38:10;;;;;;;5.28;2.40;;;;;;;24.87;58.80;99323.16;2076953;28;21260;-65
2023/10/11 01:39:12;;;;;;;7.72;2.80;;;;;;;24.86;58.87;99324.25;2076522;28;20045;-65
2023/10/11 01:40:20;;;;;;;5.57;2.92;;;;;;;24.89;58.92;99318.34;2076193;28;20611;-65
2023/10/11 01:41:25;;;;;;;3.80;2.88;;;;;;;24.87;59.22;99324.00;2081347;28;20049;-65
2023/10/11 01:42:27;;;;;;;4.47;3.33;;;;;;;24.86;59.19;99327.78;2075255;28;20048;-65
2023/10/11 01:43:29;;;;;;;4.13;2.88;;;;;;;24.87;58.79;99315.03;2077428;28;20057;-64
2023/10/11 01:44:33;;;;;;;6.22;3.22;;;;;;;24.87;59.07;99324.00;2078131;28;20558;-64
2023/10/11 01:45:34;;;;;;;3.88;3.08;;;;;;;24.88;59.18;99322.94;2078968;28;20056;-65
2023/10/11 01:46:37;;;;;;;5.95;3.25;;;;;;;24.89;59.06;99315.63;2076660;28;20073;-65
2023/10/11 01:47:38;;;;;;;3.70;2.95;;;;;;;24.89;59.09;99316.47;2079972;28;20053;-65
2023/10/11 01:48:40;;;;;;;4.93;2.92;;;;;;;24.88;59.02;99316.72;2081635;28;20049;-65
2023/10/11 01:49:41;;;;;;;5.22;2.55;;;;;;;24.86;58.59;99308.78;2081851;28;20048;-65
2023/10/11 01:50:43;;;;;;;6.32;4.80;;;;;;;24.88;58.98;99322.13;2079167;28;20060;-65
2023/10/11 01:51:46;;;;;;;4.30;2.58;;;;;;;24.87;59.29;99320.47;2081945;28;20091;-65
2023/10/11 01:52:49;;;;;;;6.00;2.63;;;;;;;24.85;59.12;99311.72;2081613;28;20045;-66
2023/10/11 01:53:50;;;;;;;6.68;3.03;;;;;;;24.86;58.75;99308.78;2080236;28;20056;-65
2023/10/11 01:54:55;;;;;;;3.35;2.97;;;;;;;24.88;59.02;99316.72;2078317;28;20480;-65
2023/10/11 01:55:56;;;;;;;5.07;3.30;;;;;;;24.86;58.71;99313.38;2076091;28;20052;-65
2023/10/11 01:57:01;;;;;;;6.20;3.13;;;;;;;24.86;58.93;99308.78;2078270;28;20596;-65
2023/10/11 01:58:06;;;;;;;3.95;2.60;;;;;;;24.84;59.13;99315.50;2077299;28;20045;-65
2023/10/11 01:59:11;;;;;;;4.18;3.10;;;;;;;24.87;58.99;99310.44;2078188;28;20428;-65
2023/10/11 02:00:14;;;;;;;6.25;3.70;;;;;;;24.88;58.93;99311.28;2078585;28;20132;-66
2023/10/11 02:01:22;;;;;;;6.00;3.50;;;;;;;24.84;58.72;99310.06;2080389;28;20049;-65
2023/10/11 02:02:27;;;;;;;3.95;3.03;;;;;;;24.84;58.97;99316.31;2081072;28;20051;-65
2023/10/11 02:03:29;;;;;;;4.70;3.40;;;;;;;24.84;59.18;99316.31;2082268;28;20080;-65
2023/10/11 02:04:30;;;;;;;4.68;3.13;;;;;;;24.83;59.10;99314.66;2080129;28;20053;-65
2023/10/11 02:05:32;;;;;;;5.65;2.53;;;;;;;24.85;58.70;99312.56;2079515;28;20508;-65
2023/10/11 02:06:33;;;;;;;5.65;3.88;;;;;;;24.86;58.97;99307.97;2081955;28;20055;-65
2023/10/11 02:07:35;;;;;;;3.75;2.72;;;;;;;24.87;59.02;99309.59;2081290;28;21039;-65
2023/10/11 02:08:37;;;;;;;3.83;2.83;;;;;;;24.88;58.60;99305.84;2083645;28;20049;-65
2023/10/11 02:09:39;;;;;;;4.15;2.92;;;;;;;24.85;59.09;99312.56;2080038;28;20041;-65
2023/10/11 02:10:39;;;;;;;2.60;2.40;;;;;;;24.86;59.13;99313.38;2078514;28;20080;-65
2023/10/11 02:11:42;;;;;;;5.80;2.45;;;;;;;24.86;58.84;99303.34;2078509;28;20503;-65
2023/10/11 02:12:44;;;;;;;4.13;2.58;;;;;;;24.84;59.18;99308.16;2078473;28;20128;-65
2023/10/11 02:13:49;;;;;;;5.03;2.90;;;;;;;24.84;59.10;99305.47;2079749;28;20132;-65
2023/10/11 02:14:50;;;;;;;5.35;3.47;;;;;;;24.83;59.22;99309.25;2080466;28;20048;-65
2023/10/11 02:15:52;;;;;;;2.63;2.42;;;;;;;24.85;59.24;99306.28;2073902;28;20045;-65
2023/10/11 02:16:53;;;;;;;5.75;2.47;;;;;;;24.84;59.33;99304.63;2081374;28;20053;-65
2023/10/11 02:17:55;;;;;;;4.35;3.47;;;;;;;24.84;59.10;99302.75;2079354;28;20056;-65
2023/10/11 02:18:59;;;;;;;3.15;2.85;;;;;;;24.84;59.25;99300.03;2079017;28;20045;-65
2023/10/11 02:20:01;;;;;;;3.58;2.63;;;;;;;24.82;58.71;99304.03;2078054;28;20080;-65
2023/10/11 02:21:06;;;;;;;6.90;2.70;;;;;;;24.83;58.99;99303.00;2084808;28;20095;-65
2023/10/11 02:22:10;;;;;;;3.72;2.67;;;;;;;24.84;59.20;99301.91;2076627;28;20115;-65
2023/10/11 02:23:12;;;;;;;4.78;2.70;;;;;;;24.82;58.86;99304.84;2077309;28;20095;-65
2023/10/11 02:24:15;;;;;;;5.72;3.30;;;;;;;24.83;59.08;99309.25;2082329;28;20132;-65
2023/10/11 02:25:17;;;;;;;6.28;3.47;;;;;;;24.82;59.22;99304.03;2081460;28;20131;-65
2023/10/11 02:26:18;;;;;;;4.82;3.17;;;;;;;24.83;58.71;99305.69;2074933;28;20046;-65
2023/10/11 02:27:22;;;;;;;3.20;2.15;;;;;;;24.82;58.70;99312.16;2081439;28;20053;-65
2023/10/11 02:28:23;;;;;;;2.70;2.45;;;;;;;24.85;59.12;99300.84;2081045;28;20107;-65
2023/10/11 02:29:25;;;;;;;6.25;3.00;;;;;;;24.84;58.89;99299.22;2079687;28;20041;-65
2023/10/11 02:30:26;;;;;;;3.75;3.03;;;;;;;24.86;59.25;99310.66;2077290;28;20049;-65
2023/10/11 02:31:31;;;;;;;6.63;2.65;;;;;;;24.86;59.35;99305.25;2075757;28;20116;-65
2023/10/11 02:32:38;;;;;;;6.55;3.70;;;;;;;24.82;59.26;99312.16;2079221;28;20516;-65
2023/10/11 02:33:41;;;;;;;8.07;2.67;;;;;;;24.84;59.30;99307.34;2077030;28;20100;-65
2023/10/11 02:34:43;;;;;;;4.68;2.97;;;;;;;24.82;58.84;99313.00;2081144;28;20048;-65
2023/10/11 02:35:55;;;;;;;4.82;2.92;;;;;;;24.82;59.40;99312.16;2081166;28;20052;-65
2023/10/11 02:36:56;;;;;;;4.90;3.00;;;;;;;24.79;59.18;99310.72;2081445;28;20053;-65
2023/10/11 02:37:59;;;;;;;3.13;2.63;;;;;;;24.79;58.84;99308.03;2076326;28;20081;-65
2023/10/11 02:39:00;;;;;;;3.88;3.45;;;;;;;24.83;59.08;99305.69;2081570;28;20055;-65
2023/10/11 02:40:07;;;;;;;5.38;3.33;;;;;;;24.82;59.31;99314.88;2077357;28;20142;-65
2023/10/11 02:41:08;;;;;;;4.35;2.88;;;;;;;24.82;59.46;99313.00;2077901;28;20132;-65
2023/10/11 02:42:10;;;;;;;3.03;2.50;;;;;;;24.83;59.07;99322.81;2082261;28;20053;-66
2023/10/11 02:43:11;;;;;;;4.85;2.88;;;;;;;24.82;59.06;99313.00;2080165;28;20048;-65
2023/10/11 02:44:12;;;;;;;4.43;3.22;;;;;;;24.82;58.79;99313.00;2078060;28;20732;-65
2023/10/11 02:45:18;;;;;;;4.82;3.30;;;;;;;24.83;59.29;99303.00;2076726;28;20051;-66
2023/10/11 02:46:23;;;;;;;6.80;2.63;;;;;;;24.80;58.95;99308.88;2081437;28;20080;-65
2023/10/11 02:47:24;;;;;;;12.02;3.85;;;;;;;24.81;58.96;99310.53;2078067;28;20059;-65
2023/10/11 02:48:27;;;;;;;7.18;3.20;;;;;;;24.83;58.97;99303.81;2079464;28;20056;-65
2023/10/11 02:49:31;;;;;;;8.95;2.70;;;;;;;24.82;58.89;99301.31;2080641;28;20175;-65
2023/10/11 02:50:36;;;;;;;7.35;3.00;;;;;;;24.80;59.28;99298.84;2080284;28;20068;-65
2023/10/11 02:51:49;;;;;;;3.90;2.95;;;;;;;24.80;59.28;99300.75;2081452;28;20427;-65
2023/10/11 02:52:59;;;;;;;2.90;2.70;;;;;;;24.78;58.98;99305.56;2079346;28;20053;-65
2023/10/11 02:54:04;;;;;;;4.10;2.80;;;;;;;24.78;59.39;99300.13;2080202;28;20545;-65
2023/10/11 02:55:15;;;;;;;5.45;2.75;;;;;;;24.82;59.25;99312.16;2080387;28;20053;-65
2023/10/11 02:56:17;;;;;;;3.25;2.38;;;;;;;24.78;59.40;99300.94;2079374;28;20073;-65
2023/10/11 02:57:19;;;;;;;3.20;2.60;;;;;;;24.79;59.36;99308.03;2082015;28;20045;-65
2023/10/11 02:58:21;;;;;;;5.32;2.95;;;;;;;24.79;59.22;99299.88;2079842;28;20048;-65
2023/10/11 02:59:23;;;;;;;4.28;3.03;;;;;;;24.80;58.87;99308.88;2078567;28;20045;-65
2023/10/11 03:00:24;;;;;;;4.97;3.17;;;;;;;24.81;58.96;99305.09;2079279;28;20508;-65
2023/10/11 03:01:31;;;;;;;4.15;2.78;;;;;;;24.80;58.95;99309.69;2080283;28;20050;-66
2023/10/11 03:02:38;;;;;;;3.78;3.35;;;;;;;24.80;58.92;99304.28;2081920;28;20049;-66
2023/10/11 03:03:39;;;;;;;6.55;2.83;;;;;;;24.79;59.26;99308.03;2080626;28;20801;-66
2023/10/11 03:04:41;;;;;;;3.10;2.65;;;;;;;24.82;59.41;99298.59;2081251;28;20075;-66
2023/10/11 03:05:42;;;;;;;5.55;2.78;;;;;;;24.79;59.36;99297.16;2076680;28;20045;-66
2023/10/11 03:06:49;;;;;;;4.40;2.30;;;;;;;24.81;58.89;99296.97;2078425;28;20128;-65
2023/10/11 03:07:51;;;;;;;4.07;2.70;;;;;;;24.78;59.11;99300.13;2084637;28;20045;-65
2023/10/11 03:08:53;;;;;;;3.60;2.78;;;;;;;24.79;59.29;99297.16;2078701;28;20045;-65
2023/10/11 03:09:55;;;;;;;8.13;2.92;;;;;;;24.80;59.19;99303.44;2081393;28;20102;-65
2023/10/11 03:10:57;;;;;;;4.45;2.42;;;;;;;24.79;58.95;99291.75;2080647;28;20053;-66
2023/10/11 03:12:05;;;;;;;5.20;3.38;;;;;;;24.80;59.13;99300.75;2077955;28;20053;-65
2023/10/11 03:13:06;;;;;;;6.45;2.83;;;;;;;24.80;59.12;99292.59;2080670;28;20076;-65
2023/10/11 03:14:08;;;;;;;10.35;3.17;;;;;;;24.80;59.25;99301.56;2076280;28;20053;-65
2023/10/11 03:15:13;;;;;;;4.30;2.58;;;;;;;24.84;58.75;99302.75;2077046;28;20053;-66
2023/10/11 03:16:17;;;;;;;2.78;2.42;;;;;;;24.82;59.02;99299.44;2080750;28;20045;-66
2023/10/11 03:17:20;;;;;;;7.03;2.92;;;;;;;24.81;59.08;99296.97;2077363;28;20569;-65
2023/10/11 03:18:25;;;;;;;4.80;2.90;;;;;;;24.79;58.76;99297.16;2079897;28;20061;-65
2023/10/11 03:19:26;;;;;;;3.20;2.53;;;;;;;24.83;58.85;99297.56;2078696;28;20396;-66
2023/10/11 03:20:30;;;;;;;3.38;3.03;;;;;;;24.82;59.30;99306.75;2078318;28;20515;-66
2023/10/11 03:21:33;;;;;;;4.35;2.50;;;;;;;24.80;59.04;99304.28;2079743;28;20049;-65
2023/10/11 03:22:36;;;;;;;4.18;2.50;;;;;;;24.79;59.19;99299.88;2078851;28;20060;-66
2023/10/11 03:23:43;;;;;;;3.38;2.42;;;;;;;24.79;58.89;99301.78;2079442;28;20421;-64
2023/10/11 03:24:49;;;;;;;3.55;2.60;;;;;;;24.79;58.82;99297.16;2079334;28;20071;-66
2023/10/11 03:25:50;;;;;;;5.35;2.38;;;;;;;24.79;58.65;99301.78;2079401;28;20049;-65
2023/10/11 03:26:53;;;;;;;4.30;2.60;;;;;;;24.80;58.89;99304.28;2081167;28;20443;-66
2023/10/11 03:27:54;;;;;;;3.95;2.92;;;;;;;24.81;58.59;99299.66;2078166;28;20111;-65
2023/10/11 03:28:58;;;;;;;3.08;2.20;;;;;;;24.83;58.99;99303.81;2082729;28;20573;-66
2023/10/11 03:29:59;;;;;;;3.38;2.03;;;;;;;24.80;58.81;99301.56;2078240;28;20064;-65
2023/10/11 03:31:01;;;;;;;3.17;2.50;;;;;;;24.79;59.34;99302.59;2079691;28;20130;-65
2023/10/11 03:32:04;;;;;;;4.38;2.47;;;;;;;24.79;58.84;99301.78;2083538;28;20411;-66
2023/10/11 03:33:07;;;;;;;4.85;2.63;;;;;;;24.80;58.77;99304.28;2082973;28;20046;-66
2023/10/11 03:34:10;;;;;;;4.82;2.65;;;;;;;24.78;59.02;99295.53;2083304;28;20096;-65
2023/10/11 03:35:16;;;;;;;4.80;3.03;;;;;;;24.79;58.64;99299.88;2084798;28;20049;-67
2023/10/11 03:36:18;;;;;;;4.75;2.72;;;;;;;24.77;59.16;99303.88;2080084;28;20058;-65
2023/10/11 03:37:20;;;;;;;3.13;2.53;;;;;;;24.78;59.19;99306.38;2084672;28;20052;-67
2023/10/11 03:38:22;;;;;;;4.32;2.65;;;;;;;24.79;58.87;99291.75;2082860;28;20439;-66
2023/10/11 03:40:54;;;;;;;5.43;2.65;;;;;;;24.79;58.97;99296.34;2081810;28;20400;-66
2023/10/11 03:42:06;;;;;;;4.45;3.25;;;;;;;24.78;59.44;99297.41;2083392;28;20071;-65
2023/10/11 03:43:16;;;;;;;3.03;2.55;;;;;;;24.75;59.05;99304.13;2080492;28;20045;-66
2023/10/11 03:44:17;;;;;;;3.75;3.20;;;;;;;24.75;59.01;99296.81;2079622;28;20081;-66
2023/10/11 03:45:27;;;;;;;3.45;2.65;;;;;;;24.80;59.26;99298.84;2081660;28;20148;-67
2023/10/11 03:46:28;;;;;;;4.40;2.95;;;;;;;24.77;58.63;99303.88;2079250;28;20053;-66
2023/10/11 03:47:31;;;;;;;5.57;3.10;;;;;;;24.79;59.19;99290.94;2081081;28;20078;-66
2023/10/11 03:48:43;;;;;;;4.57;2.78;;;;;;;24.79;58.94;99291.75;2083297;28;20379;-66
2023/10/11 03:49:51;;;;;;;2.15;1.95;;;;;;;24.78;58.87;99286.56;2078083;28;20057;-65
2023/10/11 03:50:52;;;;;;;3.83;3.03;;;;;;;24.77;58.92;99299.31;2078440;28;20083;-65
2023/10/11 03:51:53;;;;;;;5.68;3.00;;;;;;;24.75;59.22;99291.38;2075335;28;20095;-65
2023/10/11 03:53:06;;;;;;;2.65;2.42;;;;;;;24.78;58.76;99297.41;2078849;28;20050;-65
2023/10/11 03:54:07;;;;;;;3.28;2.53;;;;;;;24.77;58.84;99299.31;2077920;28;20053;-65
2023/10/11 03:55:10;;;;;;;4.72;2.67;;;;;;;24.78;58.84;99295.53;2079930;28;20060;-65
2023/10/11 03:56:11;;;;;;;4.05;2.55;;;;;;;24.75;59.31;99294.09;2078535;28;20069;-65
2023/10/11 03:57:17;;;;;;;3.28;2.47;;;;;;;24.78;59.22;99297.41;2078728;28;20038;-65
2023/10/11 03:58:32;;;;;;;5.38;3.05;;;;;;;24.77;59.22;99303.88;2082031;28;20091;-65
2023/10/11 03:59:38;;;;;;;3.90;2.60;;;;;;;24.75;58.99;99302.22;2079280;28;20631;-65
2023/10/11 04:00:46;;;;;;;4.13;2.15;;;;;;;24.76;58.82;99292.22;2077643;28;20049;-65
2023/10/11 04:01:49;;;;;;;4.82;3.25;;;;;;;24.77;59.15;99293.03;2078942;28;20059;-64
2023/10/11 04:02:56;;;;;;;4.70;2.63;;;;;;;24.75;59.25;99302.22;2081706;28;20045;-64
2023/10/11 04:03:59;;;;;;;8.27;3.13;;;;;;;24.74;59.21;99303.31;2080836;28;20045;-65
2023/10/11 04:05:03;;;;;;;5.22;2.35;;;;;;;24.74;59.22;99303.31;2080187;28;20118;-65
2023/10/11 04:06:13;;;;;;;3.40;2.40;;;;;;;24.77;59.38;99293.03;2080045;28;20045;-65
2023/10/11 04:07:15;;;;;;;5.50;3.55;;;;;;;24.73;59.03;99303.50;2082468;28;20518;-65
2023/10/11 04:08:24;;;;;;;6.25;2.33;;;;;;;24.73;58.90;99289.94;2081380;28;20068;-65
2023/10/11 04:09:33;;;;;;;3.70;2.75;;;;;;;24.74;59.01;99288.91;2079537;28;20479;-65
2023/10/11 04:10:39;;;;;;;3.25;1.98;;;;;;;24.72;59.55;99296.44;2079212;28;20146;-65
2023/10/11 04:11:53;;;;;;;7.43;2.88;;;;;;;24.71;59.60;99294.75;2078744;28;20057;-65
2023/10/11 04:12:55;;;;;;;6.15;3.17;;;;;;;24.70;59.33;99293.94;2080641;28;20053;-65
2023/10/11 04:13:58;;;;;;;5.32;2.95;;;;;;;24.71;59.47;99301.03;2079565;28;20049;-65
2023/10/11 04:15:06;;;;;;;8.68;2.92;;;;;;;24.72;58.92;99297.25;2080555;28;20060;-65
2023/10/11 04:16:08;;;;;;;8.75;2.90;;;;;;;24.72;59.28;99291.84;2078809;28;20488;-65
2023/10/11 04:17:14;;;;;;;4.78;2.80;;;;;;;24.73;59.13;99298.91;2080108;28;20053;-65
2023/10/11 04:18:32;;;;;;;6.15;2.90;;;;;;;24.74;58.86;99303.31;2083233;28;20045;-65
2023/10/11 04:19:39;;;;;;;4.65;2.72;;;;;;;24.71;59.44;99300.19;2076248;28;20104;-65
2023/10/11 04:20:50;;;;;;;5.18;2.80;;;;;;;24.71;59.20;99306.47;2082842;28;20088;-66
2023/10/11 04:21:57;;;;;;;;;;;;;;;24.59;59.45;99305.56;2080980;28;20052;-66
2023/10/11 04:23:07;;;;;;;5.43;2.40;;;;;;;24.63;59.64;99306.78;2079301;28;19921;-65
2023/10/11 04:24:08;;;;;;;5.88;2.90;;;;;;;24.69;59.45;99305.88;2078577;28;20515;-65
2023/10/11 04:25:10;;;;;;;7.55;2.67;;;;;;;24.74;59.32;99308.72;2082405;28;20135;-65
2023/10/11 04:26:25;;;;;;;3.63;3.13;;;;;;;24.78;59.11;99300.94;2079757;28;20048;-65
2023/10/11 04:28:47;;;;;;;3.65;2.42;;;;;;;24.71;59.41;99306.47;2067985;28;20090;-64
2023/10/11 04:29:50;;;;;;;4.88;3.03;;;;;;;24.71;59.00;99306.47;2082855;28;20148;-65
2023/10/11 04:31:17;;;;;;;5.13;2.40;;;;;;;24.74;59.30;99308.72;2075814;28;20140;-65
2023/10/11 04:32:14;;;;;;;4.20;2.90;;;;;;;24.70;59.54;99304.78;2078227;28;20048;-65
2023/10/11 04:33:20;;;;;;;4.35;2.75;;;;;;;24.72;59.24;99308.13;2077096;28;20053;-66
2023/10/11 04:34:23;;;;;;;5.15;2.83;;;;;;;24.77;58.84;99307.44;2071788;28;20052;-66
2023/10/11 04:35:36;;;;;;;7.18;2.58;;;;;;;24.75;59.05;99310.38;2078245;28;20045;-65
2023/10/11 04:36:42;;;;;;;6.63;2.47;;;;;;;24.75;59.39;99312.25;2078171;28;20412;-65
2023/10/11 04:37:43;;;;;;;6.25;2.47;;;;;;;24.74;59.02;99311.44;2074360;28;20057;-65
2023/10/11 04:38:47;;;;;;;4.03;2.38;;;;;;;24.72;59.21;99308.13;2075387;28;20041;-66
2023/10/11 04:39:49;;;;;;;6.20;3.47;;;;;;;24.70;59.27;99298.53;2078215;28;20095;-65
2023/10/11 04:40:52;;;;;;;7.40;3.10;;;;;;;24.71;59.32;99306.47;2076836;28;20069;-65
2023/10/11 04:41:53;;;;;;;3.45;2.47;;;;;;;24.72;59.12;99312.72;2081010;28;20056;-65
2023/10/11 04:43:04;;;;;;;4.15;2.72;;;;;;;24.70;59.28;99306.69;2080240;28;20049;-65
2023/10/11 04:44:13;;;;;;;5.53;3.05;;;;;;;24.70;58.86;99312.94;2079158;28;20056;-65
2023/10/11 04:45:22;;;;;;;8.02;3.15;;;;;;;24.66;58.82;99306.31;2076476;28;20187;-65
2023/10/11 04:46:27;;;;;;;3.63;2.60;;;;;;;24.66;59.36;99305.50;2078853;28;20502;-64
2023/10/11 04:47:50;;;;;;;4.45;2.25;;;;;;;24.66;59.24;99313.63;2080239;28;20052;-64
2023/10/11 04:48:50;;;;;;;9.52;3.13;;;;;;;24.62;58.86;99312.41;2081186;28;21302;-65
2023/10/11 04:49:52;;;;;;;4.72;2.78;;;;;;;24.62;58.75;99313.25;2078590;28;20057;-66
2023/10/11 04:50:55;;;;;;;5.13;2.67;;;;;;;24.64;58.88;99310.31;2079077;28;20048;-66
2023/10/11 04:51:56;;;;;;;5.80;2.72;;;;;;;24.62;58.70;99310.53;2079355;28;20044;-66
2023/10/11 04:52:58;;;;;;;4.50;2.78;;;;;;;24.64;58.79;99310.31;2079722;28;20645;-65
2023/10/11 04:53:59;;;;;;;2.20;2.00;;;;;;;24.63;58.66;99309.50;2080772;28;20698;-67
2023/10/11 04:55:12;;;;;;;5.13;2.63;;;;;;;24.65;58.82;99312.78;2080035;28;20052;-66
2023/10/11 04:57:35;;;;;;;2.90;2.45;;;;;;;24.62;58.82;99310.53;2074675;28;20065;-65
2023/10/11 04:58:40;;;;;;;4.53;2.60;;;;;;;24.63;58.64;99308.66;2080948;28;20085;-66
2023/10/11 04:59:42;;;;;;;7.32;2.92;;;;;;;24.63;58.88;99314.91;2071995;28;20649;-65
2023/10/11 05:00:47;;;;;;;3.28;2.42;;;;;;;24.62;58.62;99312.41;2080130;28;21210;-65
2023/10/11 05:02:04;;;;;;;7.32;2.50;;;;;;;24.61;58.97;99319.72;2081668;28;20048;-65
2023/10/11 05:03:04;;;;;;;4.65;2.45;;;;;;;24.60;58.82;99311.81;2078698;28;20044;-65
2023/10/11 05:04:12;;;;;;;3.55;2.40;;;;;;;24.60;58.80;99312.66;2076497;28;20045;-64
2023/10/11 05:05:18;;;;;;;3.38;2.83;;;;;;;24.60;58.68;99306.38;2080568;28;20045;-65